Terminal Aerodrome Forecast
Issued by NWS Memphis, TN

Home | Current Version | Previous Version | Text Only | Print | Product List | Glossary On
Versions: 1 2 3 4 5 6 7 8 9 10 11 12 13 14
000
FTUS44 KMEG 131735
TAFMKL
TAF
KMKL 131735Z 1318/1418 22018G26KT P6SM SKC
     FM140000 23008KT P6SM SCT150 BKN250
     FM140700 32005KT P6SM SKC
     FM141000 35007KT P6SM SKC
     FM141400 36010KT P6SM BKN030 BKN080 OVC250=

USA.gov is the U.S. government's official web portal to all federal, state and local government web resources and services.